Time;durP1;ratioP1;P1;durP2;ratioP2;P2;SDS_P1;SDS_P2;PMS_P1;PMS_P2;Temp;Humidity;BMP_temperature;BMP_pressure;BME280_temperature;BME280_humidity;BME280_pressure;Samples;Min_cycle;Max_cycle;Signal;HPM_P1;HPM_P2
2023/03/29 00:01:01;;;;;;;8.43;4.35;;;;;;;12.83;30.97;101970.72;6174315;23;20522;-83
2023/03/29 00:03:48;;;;;;;8.13;3.78;;;;;;;12.72;31.58;101973.34;6208948;23;20028;-83
2023/03/29 00:06:21;;;;;;;10.63;3.78;;;;;;;12.58;31.62;101966.41;6209179;23;20111;-82
2023/03/29 00:08:54;;;;;;;8.30;4.25;;;;;;;12.74;30.99;101974.09;6213312;23;20368;-82
2023/03/29 00:11:22;;;;;;;14.13;4.25;;;;;;;12.67;30.97;101968.41;6175126;23;20270;-84
2023/03/29 00:13:52;;;;;;;10.13;3.85;;;;;;;12.65;31.41;101982.81;6183276;23;20095;-80
2023/03/29 00:16:24;;;;;;;9.88;4.70;;;;;;;12.61;31.21;101982.16;6198010;23;20016;-82
2023/03/29 00:18:54;;;;;;;8.65;3.80;;;;;;;12.48;31.02;101968.09;6182852;23;20355;-82
2023/03/29 00:21:33;;;;;;;13.10;3.78;;;;;;;12.72;30.84;101989.34;6151105;23;20021;-81
2023/03/29 00:24:06;;;;;;;15.38;4.15;;;;;;;12.64;30.94;101973.09;6202301;23;20024;-82
2023/03/29 00:26:39;;;;;;;5.47;3.38;;;;;;;12.53;31.31;101974.75;6182018;23;20262;-80
2023/03/29 00:29:08;;;;;;;5.47;3.60;;;;;;;11.70;31.29;101858.47;6181769;23;20023;-82
2023/03/29 00:31:36;;;;;;;7.82;3.50;;;;;;;12.66;31.22;102000.47;6191788;23;20346;-83
2023/03/29 00:34:03;;;;;;;11.45;4.20;;;;;;;12.35;31.39;101954.81;6190687;23;20047;-83
2023/03/29 00:36:31;;;;;;;7.90;3.47;;;;;;;12.03;31.14;101911.97;6181647;23;20078;-82
2023/03/29 00:39:01;;;;;;;7.85;3.70;;;;;;;12.19;31.22;101929.34;6182447;23;20306;-80
2023/03/29 00:41:34;;;;;;;6.35;3.45;;;;;;;11.99;31.02;101887.41;6170791;23;20030;-81
2023/03/29 00:44:07;;;;;;;6.70;3.60;;;;;;;12.46;30.78;101978.00;6186817;23;20059;-83
2023/03/29 00:46:38;;;;;;;9.23;4.10;;;;;;;12.67;31.58;102002.16;6196014;23;20034;-82
2023/03/29 00:49:15;;;;;;;8.35;3.42;;;;;;;12.74;31.25;102003.38;6163203;23;20047;-81
2023/03/29 00:51:43;;;;;;;13.85;3.67;;;;;;;12.57;31.49;101981.56;6215814;23;20020;-83
2023/03/29 00:54:18;;;;;;;8.45;3.45;;;;;;;12.79;31.29;101990.56;6190505;23;20020;-81
2023/03/29 00:56:51;;;;;;;10.50;3.53;;;;;;;12.84;30.28;101975.09;6177187;23;20147;-83
2023/03/29 00:59:31;;;;;;;7.00;3.63;;;;;;;12.76;30.31;101949.00;6194042;23;20258;-83
2023/03/29 01:02:06;;;;;;;9.48;3.90;;;;;;;12.73;30.37;101940.41;6174827;23;20685;-81
2023/03/29 01:07:56;;;;;;;7.03;4.03;;;;;;;12.57;30.53;101908.75;6207751;23;20067;-83
2023/03/29 01:10:47;;;;;;;5.55;3.38;;;;;;;12.92;31.03;101983.34;6183903;23;20024;-81
2023/03/29 01:13:26;;;;;;;5.47;3.55;;;;;;;12.93;30.89;101977.03;6181409;23;20712;-83
2023/03/29 01:16:02;;;;;;;18.55;3.55;;;;;;;12.83;30.96;101944.06;6175799;23;20016;-82
2023/03/29 01:18:43;;;;;;;5.47;3.60;;;;;;;12.76;30.90;101937.50;6147686;23;20233;-82
2023/03/29 01:21:15;;;;;;;5.50;3.63;;;;;;;12.76;30.74;101929.53;6183800;23;20016;-83
2023/03/29 01:24:09;;;;;;;8.45;3.40;;;;;;;12.50;30.77;101868.47;6178898;23;20169;-82
2023/03/29 01:26:55;;;;;;;4.18;2.83;;;;;;;13.04;30.93;101953.06;6171303;23;20043;-82
2023/03/29 01:29:48;;;;;;;5.25;3.42;;;;;;;12.95;31.48;101956.44;6171308;23;20021;-82
2023/03/29 01:32:36;;;;;;;9.30;2.92;;;;;;;12.92;31.38;101938.03;6213457;23;20071;-83
2023/03/29 01:35:09;;;;;;;6.18;3.17;;;;;;;12.95;30.93;101913.81;6213876;23;20546;-82
2023/03/29 01:38:12;;;;;;;5.13;3.30;;;;;;;13.08;30.48;101928.81;6198269;23;20550;-81
2023/03/29 01:40:40;;;;;;;9.32;3.13;;;;;;;12.94;30.79;101904.13;6107270;23;20212;-82
2023/03/29 01:43:33;;;;;;;6.03;3.78;;;;;;;13.06;31.05;101939.63;6177520;23;20505;-81
2023/03/29 01:46:23;;;;;;;5.90;3.60;;;;;;;13.06;30.57;101939.63;6157052;23;20697;-81
2023/03/29 01:49:04;;;;;;;5.25;3.45;;;;;;;13.06;30.83;101936.97;6177392;23;20466;-82
2023/03/29 01:51:44;;;;;;;4.93;3.22;;;;;;;12.99;30.78;101909.09;6209389;23;20267;-83
2023/03/29 01:54:51;;;;;;;5.78;3.22;;;;;;;13.14;31.04;101931.03;6199542;23;20166;-82
2023/03/29 01:57:20;;;;;;;8.73;3.30;;;;;;;12.96;30.62;101888.84;6189650;23;20091;-80
2023/03/29 02:00:01;;;;;;;6.60;3.38;;;;;;;13.15;30.99;101927.38;6181640;23;20452;-83
2023/03/29 02:02:31;;;;;;;5.32;3.33;;;;;;;13.16;30.93;101918.44;6169981;23;20192;-82
2023/03/29 02:04:59;;;;;;;5.80;2.72;;;;;;;13.13;30.69;101900.84;6182968;23;20012;-81
2023/03/29 02:07:31;;;;;;;7.35;3.00;;;;;;;12.68;30.73;101830.69;6177892;23;20020;-82
2023/03/29 02:10:15;;;;;;;7.55;3.15;;;;;;;13.31;30.61;101903.06;6210971;23;20107;-82
2023/03/29 02:12:53;;;;;;;5.60;3.00;;;;;;;13.17;30.99;101898.78;6179245;23;20026;-80
2023/03/29 02:15:33;;;;;;;9.37;3.53;;;;;;;12.99;30.69;101883.28;6157846;23;20197;-81
2023/03/29 02:18:02;;;;;;;10.90;3.38;;;;;;;12.92;30.74;101890.06;6198567;23;20657;-78
2023/03/29 02:20:37;;;;;;;8.77;3.58;;;;;;;12.40;31.71;101812.38;6183005;23;20027;-82
2023/03/29 02:23:34;;;;;;;5.88;3.25;;;;;;;12.70;30.26;101845.59;6193127;23;20557;-80
2023/03/29 02:26:07;;;;;;;6.95;3.25;;;;;;;12.65;30.81;101854.91;6191408;23;20016;-81
2023/03/29 02:28:42;;;;;;;6.00;3.20;;;;;;;13.04;31.02;101905.09;6171748;23;20020;-81
2023/03/29 02:31:22;;;;;;;5.55;3.33;;;;;;;13.04;30.88;101907.75;6185218;23;20019;-82
2023/03/29 02:34:03;;;;;;;6.43;3.33;;;;;;;12.95;30.87;101894.31;6162505;23;20020;-81
2023/03/29 02:36:48;;;;;;;6.70;3.35;;;;;;;12.96;30.59;101890.66;6197279;23;20188;-81
2023/03/29 02:39:24;;;;;;;6.30;3.05;;;;;;;13.01;31.47;101924.00;6175687;23;20020;-82
2023/03/29 02:41:59;;;;;;;8.80;2.95;;;;;;;12.81;31.81;101890.88;6171820;23;20067;-81
2023/03/29 02:44:29;;;;;;;5.13;2.80;;;;;;;13.01;31.54;101910.66;6165868;23;20277;-81
2023/03/29 02:47:26;;;;;;;5.70;3.10;;;;;;;12.97;31.13;101903.03;6172722;23;20016;-82
2023/03/29 02:50:10;;;;;;;7.57;2.97;;;;;;;12.92;30.96;101882.06;6160598;23;20020;-81
2023/03/29 02:52:52;;;;;;;7.43;3.00;;;;;;;13.06;30.72;101902.31;6171429;23;20102;-81
2023/03/29 02:55:30;;;;;;;8.88;3.17;;;;;;;13.03;31.34;101903.41;6171625;23;20037;-82
2023/03/29 02:58:07;;;;;;;5.18;3.00;;;;;;;12.79;30.71;101862.66;6182269;23;20220;-81
2023/03/29 03:00:46;;;;;;;8.18;3.05;;;;;;;12.69;31.22;101861.69;6186083;23;20622;-81
2023/03/29 03:03:14;;;;;;;6.10;3.05;;;;;;;12.96;31.18;101907.53;6175270;23;20189;-81
2023/03/29 03:05:51;;;;;;;5.63;3.22;;;;;;;12.87;31.66;101894.06;6180629;23;20023;-81
2023/03/29 03:08:29;;;;;;;5.47;2.83;;;;;;;12.80;32.47;101891.84;6190669;23;20020;-83
2023/03/29 03:11:15;;;;;;;6.22;3.05;;;;;;;12.90;31.75;101902.66;6147448;23;20171;-81
2023/03/29 03:13:51;;;;;;;6.28;2.90;;;;;;;12.90;32.13;101907.13;6168641;23;20016;-81
2023/03/29 03:16:28;;;;;;;5.93;3.55;;;;;;;12.95;32.42;101916.47;6196230;23;20041;-80
2023/03/29 03:19:03;;;;;;;5.65;3.40;;;;;;;12.81;33.25;101904.19;6196991;23;20027;-82
2023/03/29 03:21:40;;;;;;;7.88;3.47;;;;;;;12.82;33.51;101926.41;6164373;23;20020;-81
2023/03/29 03:24:09;;;;;;;5.85;2.72;;;;;;;12.68;33.21;101899.97;6170023;23;20024;-81
2023/03/29 03:26:37;;;;;;;9.80;3.25;;;;;;;12.63;33.62;101888.81;6177389;23;20027;-82
2023/03/29 03:29:05;;;;;;;11.00;3.65;;;;;;;12.46;34.36;101863.47;6181043;23;20137;-80
2023/03/29 03:31:32;;;;;;;6.43;2.75;;;;;;;12.15;33.67;101805.41;6191235;23;20352;-81
2023/03/29 03:34:03;;;;;;;3.78;2.60;;;;;;;12.73;34.39;101909.28;6173444;23;20193;-81
2023/03/29 03:36:37;;;;;;;6.80;3.13;;;;;;;12.67;34.25;101914.22;6171422;23;20024;-81
2023/03/29 03:39:05;;;;;;;4.13;2.78;;;;;;;12.67;34.13;101907.13;6178858;23;20024;-82
2023/03/29 03:44:30;;;;;;;5.07;3.45;;;;;;;12.48;34.80;101881.03;6204138;23;20035;-81
2023/03/29 03:47:02;;;;;;;6.15;3.15;;;;;;;12.23;34.70;101846.59;6182501;23;20016;-81
2023/03/29 03:49:31;;;;;;;4.82;3.22;;;;;;;12.15;34.92;101832.03;6180447;23;20433;-81
2023/03/29 03:52:19;;;;;;;6.45;2.88;;;;;;;12.61;34.84;101903.09;6173435;23;20089;-80
2023/03/29 03:54:47;;;;;;;11.90;4.22;;;;;;;12.68;33.65;101897.31;6182759;23;20016;-81
2023/03/29 03:57:13;;;;;;;6.82;3.45;;;;;;;12.70;33.37;101901.53;6196152;23;20055;-82
2023/03/29 03:59:43;;;;;;;4.40;2.92;;;;;;;12.52;34.31;101882.47;6173253;23;20344;-80
2023/03/29 04:02:10;;;;;;;7.60;2.80;;;;;;;12.43;36.14;101880.53;6170526;23;20091;-82
2023/03/29 04:04:38;;;;;;;8.15;3.50;;;;;;;12.33;35.45;101888.38;6160815;23;20020;-80
2023/03/29 04:07:08;;;;;;;9.70;3.15;;;;;;;12.17;35.95;101883.34;6166027;23;20024;-80
2023/03/29 04:09:36;;;;;;;8.35;3.30;;;;;;;12.27;35.61;101904.81;6168652;23;20084;-83
2023/03/29 04:12:04;;;;;;;6.63;3.63;;;;;;;12.26;35.37;101892.47;6169534;23;20024;-82
2023/03/29 04:14:38;;;;;;;11.23;3.67;;;;;;;12.27;34.16;101861.38;6170389;23;20106;-82
2023/03/29 04:17:12;;;;;;;10.68;3.35;;;;;;;12.19;34.18;101828.19;6162288;23;20464;-81
2023/03/29 04:19:50;;;;;;;12.85;3.45;;;;;;;12.23;36.44;101875.88;6179557;23;20020;-82
2023/03/29 04:22:17;;;;;;;9.40;3.13;;;;;;;12.17;35.99;101888.69;6155903;23;20016;-82
2023/03/29 04:24:44;;;;;;;6.80;3.60;;;;;;;12.08;36.33;101896.50;6200713;23;20204;-81
2023/03/29 04:27:10;;;;;;;6.22;2.53;;;;;;;11.85;36.23;101874.25;6181536;23;20020;-82
2023/03/29 04:29:38;;;;;;;9.05;2.95;;;;;;;11.99;36.85;101911.38;6179683;23;20126;-83
2023/03/29 04:32:04;;;;;;;4.40;3.25;;;;;;;11.89;36.33;101894.34;6195958;23;20108;-81
2023/03/29 04:34:42;;;;;;;9.73;3.25;;;;;;;12.06;35.63;101903.75;6186370;23;20078;-81
2023/03/29 04:37:13;;;;;;;4.72;2.75;;;;;;;11.80;35.70;101847.97;6173734;23;20324;-82
2023/03/29 04:39:47;;;;;;;;;;;;;;;11.64;37.01;101842.09;6170011;23;20643;-82
2023/03/29 04:42:22;;;;;;;5.95;2.92;;;;;;;12.02;34.84;101881.00;6178544;23;20104;-80
2023/03/29 04:44:53;;;;;;;8.30;3.20;;;;;;;11.94;36.23;101889.53;6175177;23;20031;-83
2023/03/29 04:47:38;;;;;;;10.32;3.20;;;;;;;10.63;36.00;101685.50;6155795;23;20526;-80
2023/03/29 04:50:07;;;;;;;7.32;3.10;;;;;;;11.88;35.91;101904.16;6197434;23;20074;-81
2023/03/29 04:53:02;;;;;;;10.35;3.17;;;;;;;11.13;36.48;101795.25;6184486;23;20056;-79
2023/03/29 04:56:05;;;;;;;5.45;3.10;;;;;;;11.51;35.72;101863.44;6201596;23;20020;-81
2023/03/29 04:58:34;;;;;;;6.25;3.03;;;;;;;10.90;36.74;101757.91;6176738;23;20028;-81
2023/03/29 05:01:11;;;;;;;5.80;3.40;;;;;;;11.60;37.52;101877.84;6184963;23;20031;-80
2023/03/29 05:04:10;;;;;;;5.65;2.78;;;;;;;11.21;36.54;101830.09;6182613;23;20017;-80
2023/03/29 05:06:46;;;;;;;8.02;4.63;;;;;;;11.53;36.09;101894.25;6174891;23;20821;-80
2023/03/29 05:09:34;;;;;;;5.43;3.00;;;;;;;11.72;35.95;101917.72;6220276;23;20023;-80
2023/03/29 05:12:05;;;;;;;9.93;3.97;;;;;;;11.46;36.26;101878.88;6168720;23;20102;-81
2023/03/29 05:14:44;;;;;;;9.13;3.83;;;;;;;11.40;36.10;101860.69;6208319;23;20403;-81
2023/03/29 05:17:16;;;;;;;9.02;3.92;;;;;;;10.45;36.14;101707.13;6169685;23;20268;-82
2023/03/29 05:19:59;;;;;;;9.13;3.17;;;;;;;11.15;36.26;101803.13;6175960;23;20023;-83
2023/03/29 05:22:31;;;;;;;11.85;3.90;;;;;;;11.70;36.72;101910.78;6180804;23;20379;-81
2023/03/29 05:25:03;;;;;;;16.52;4.22;;;;;;;11.72;36.08;101923.03;6177271;23;20023;-83
2023/03/29 05:27:33;;;;;;;11.07;4.22;;;;;;;11.74;37.62;101938.88;6176253;23;20020;-82
2023/03/29 05:30:00;;;;;;;12.75;3.33;;;;;;;11.76;37.11;101942.28;6180346;23;20027;-81
2023/03/29 05:32:27;;;;;;;15.15;3.92;;;;;;;11.48;36.67;101907.03;6176368;23;20099;-81
2023/03/29 05:34:55;;;;;;;15.98;4.32;;;;;;;11.57;36.51;101937.44;6190748;23;20020;-83
2023/03/29 05:37:22;;;;;;;11.68;4.15;;;;;;;11.65;37.71;101953.72;6178985;23;20086;-83
2023/03/29 05:40:08;;;;;;;11.35;4.38;;;;;;;11.60;38.26;101957.63;6208055;23;20028;-82
2023/03/29 05:42:37;;;;;;;11.38;4.38;;;;;;;11.24;38.56;101903.50;6215568;23;20582;-82
2023/03/29 05:45:07;;;;;;;10.93;4.20;;;;;;;11.69;38.28;101967.63;6188890;23;20293;-82
2023/03/29 05:47:34;;;;;;;15.07;4.88;;;;;;;11.68;39.08;101966.78;6216718;23;20024;-82
2023/03/29 05:50:00;;;;;;;7.13;4.43;;;;;;;11.66;39.51;101968.69;6179321;23;20499;-82
2023/03/29 05:52:27;;;;;;;8.95;4.28;;;;;;;11.45;40.04;101928.53;6185608;23;20018;-83
2023/03/29 05:54:55;;;;;;;20.63;5.80;;;;;;;11.57;39.28;101937.44;6136783;23;20362;-81
2023/03/29 05:57:27;;;;;;;17.23;5.90;;;;;;;10.56;40.22;101775.41;6114420;23;20456;-81
2023/03/29 06:00:24;;;;;;;19.60;6.75;;;;;;;11.46;39.92;101906.31;6101857;23;20020;-82
2023/03/29 06:03:46;;;;;;;12.10;5.20;;;;;;;11.80;40.53;101974.84;6072772;23;20420;-84
2023/03/29 06:06:35;;;;;;;17.02;5.82;;;;;;;11.71;39.17;101971.88;6124790;23;20032;-82
2023/03/29 06:09:08;;;;;;;16.17;5.35;;;;;;;11.52;38.38;101937.75;6150529;23;20091;-82
2023/03/29 06:11:41;;;;;;;18.35;5.90;;;;;;;11.76;38.49;101974.19;6151998;23;20028;-82
2023/03/29 06:14:09;;;;;;;17.55;7.75;;;;;;;11.66;38.94;101946.56;6150088;23;20064;-80
2023/03/29 06:16:46;;;;;;;31.80;11.52;;;;;;;11.81;39.62;101968.56;6117109;23;20075;-82
2023/03/29 06:22:58;;;;;;;13.85;7.07;;;;;;;11.97;37.13;101977.16;6110459;23;20043;-82
2023/03/29 06:25:27;;;;;;;16.73;7.50;;;;;;;12.07;36.24;101970.19;6089662;23;20537;-81
2023/03/29 06:27:54;;;;;;;13.90;6.45;;;;;;;11.72;36.22;101909.75;6112980;23;20043;-82
2023/03/29 06:30:24;;;;;;;13.45;5.82;;;;;;;12.23;34.76;101977.88;6098357;23;20018;-80
2023/03/29 06:33:07;;;;;;;17.33;6.78;;;;;;;12.19;34.44;101940.00;6105287;23;20561;-83
2023/03/29 06:35:53;;;;;;;9.75;4.90;;;;;;;12.46;34.80;101981.50;6109398;23;20025;-82
2023/03/29 06:38:25;;;;;;;11.45;5.95;;;;;;;12.02;34.21;101895.16;6018569;23;20025;-82
2023/03/29 06:41:13;;;;;;;9.63;5.78;;;;;;;12.34;33.56;101934.50;6008712;23;20418;-83
2023/03/29 06:43:53;;;;;;;11.90;5.25;;;;;;;12.70;33.81;101980.63;6007546;23;20362;-83
2023/03/29 06:46:25;;;;;;;10.00;5.85;;;;;;;12.60;32.83;101953.84;6062016;23;20100;-83
2023/03/29 06:49:40;;;;;;;12.80;7.90;;;;;;;12.78;32.54;101972.91;6031407;23;20037;-79
2023/03/29 06:52:14;;;;;;;10.25;6.88;;;;;;;12.66;32.67;101942.69;5989624;23;20320;-80
2023/03/29 06:54:49;;;;;;;10.32;5.95;;;;;;;12.88;32.49;101979.22;6045051;23;20076;-80
2023/03/29 06:57:32;;;;;;;10.23;5.85;;;;;;;12.93;31.98;101982.38;6071718;23;20049;-80
2023/03/29 07:00:10;;;;;;;11.48;6.28;;;;;;;12.81;32.04;101946.00;6089397;23;20281;-79
2023/03/29 07:02:41;;;;;;;8.07;5.55;;;;;;;12.90;32.02;101960.44;6068352;23;20044;-77
2023/03/29 07:05:35;;;;;;;12.18;5.70;;;;;;;12.92;32.26;101964.69;6061568;23;20504;-77
2023/03/29 07:10:42;;;;;;;8.70;6.13;;;;;;;13.09;32.10;101991.88;6077609;23;20022;-80
2023/03/29 07:13:14;;;;;;;12.13;5.93;;;;;;;12.96;31.71;101950.16;6082037;23;20458;-79
2023/03/29 07:15:45;;;;;;;9.10;6.30;;;;;;;13.23;31.72;101988.97;6058384;23;20085;-81
2023/03/29 07:18:25;;;;;;;8.38;6.03;;;;;;;12.47;32.23;101881.97;6072290;23;20026;-83
2023/03/29 07:20:57;;;;;;;11.90;6.13;;;;;;;13.17;32.21;101990.28;6150853;23;20032;-83
2023/03/29 07:23:38;;;;;;;9.73;5.63;;;;;;;12.42;31.89;101851.34;6152689;23;20095;-82
2023/03/29 07:26:08;;;;;;;11.40;5.70;;;;;;;13.21;31.58;101981.09;6160774;23;20105;-83
2023/03/29 07:28:38;;;;;;;10.32;5.95;;;;;;;12.52;31.73;101845.19;6161881;23;20516;-80
2023/03/29 07:31:09;;;;;;;7.70;5.60;;;;;;;13.43;32.47;101995.44;6160865;23;20063;-81
2023/03/29 07:33:40;;;;;;;11.48;7.10;;;;;;;13.54;31.81;101997.25;6154618;23;20021;-79
2023/03/29 07:36:08;;;;;;;15.07;7.05;;;;;;;13.31;31.82;101951.91;6150642;23;20028;-80
2023/03/29 07:38:37;;;;;;;7.60;6.03;;;;;;;13.05;31.82;101906.78;6154741;23;20059;-81
2023/03/29 07:41:07;;;;;;;20.40;7.28;;;;;;;12.92;32.09;101890.06;6163507;23;20071;-80
2023/03/29 07:43:37;;;;;;;10.43;6.93;;;;;;;13.65;31.67;101990.09;6154349;23;20032;-80
2023/03/29 07:46:19;;;;;;;8.27;6.45;;;;;;;13.70;31.33;101997.72;6146835;23;20028;-79
2023/03/29 07:48:48;;;;;;;13.13;7.05;;;;;;;13.72;30.70;101994.94;6153975;23;20674;-82
2023/03/29 07:51:31;;;;;;;11.23;6.53;;;;;;;13.14;30.75;101885.69;6176087;23;20048;-80
2023/03/29 07:54:01;;;;;;;8.32;6.60;;;;;;;13.84;30.00;101984.13;6175761;23;20024;-80
2023/03/29 07:56:34;;;;;;;14.13;5.80;;;;;;;13.97;29.76;101999.13;6192893;23;20035;-81
2023/03/29 07:59:08;;;;;;;16.05;5.78;;;;;;;13.12;29.83;101858.31;6179381;23;20115;-82
2023/03/29 08:01:43;;;;;;;14.57;6.05;;;;;;;13.68;29.73;101951.63;6164814;23;20210;-82
2023/03/29 08:04:10;;;;;;;14.32;6.05;;;;;;;14.01;29.46;101990.75;6189558;23;20408;-82
2023/03/29 08:06:39;;;;;;;15.65;6.78;;;;;;;14.13;29.48;102004.94;6156463;23;20017;-80
2023/03/29 08:09:11;;;;;;;9.57;6.13;;;;;;;13.99;29.40;101986.53;6153995;23;20020;-83
2023/03/29 08:11:40;;;;;;;10.02;5.40;;;;;;;13.65;29.42;101919.88;6160303;23;20714;-82
2023/03/29 08:14:20;;;;;;;9.30;4.78;;;;;;;14.11;29.07;101997.03;6154857;23;20056;-81
2023/03/29 08:16:53;;;;;;;8.95;5.05;;;;;;;14.19;29.24;101999.06;6164266;23;20363;-78
2023/03/29 08:19:42;;;;;;;8.43;4.15;;;;;;;14.24;28.54;102012.91;6166535;23;20031;-82
2023/03/29 08:22:17;;;;;;;14.32;5.10;;;;;;;14.04;28.60;101962.97;6146437;23;20454;-84
2023/03/29 08:24:45;;;;;;;9.43;5.03;;;;;;;14.27;28.45;101974.41;6151577;23;20020;-80
2023/03/29 08:27:12;;;;;;;7.05;3.97;;;;;;;14.60;27.93;102008.19;6172050;23;20020;-79
2023/03/29 08:29:42;;;;;;;7.53;4.30;;;;;;;14.48;28.49;102003.84;6159677;23;20268;-81
2023/03/29 08:32:11;;;;;;;4.35;3.92;;;;;;;14.50;29.35;102026.78;6164017;23;20020;-78
2023/03/29 08:34:45;;;;;;;7.68;4.05;;;;;;;14.47;28.84;102003.00;6188243;23;20029;-81
2023/03/29 08:37:16;;;;;;;5.82;3.80;;;;;;;14.66;28.76;102012.16;6165500;23;20067;-79
2023/03/29 08:39:42;;;;;;;10.85;4.55;;;;;;;14.48;29.44;101990.47;6138784;23;20017;-80
2023/03/29 08:42:46;;;;;;;11.13;3.83;;;;;;;14.58;28.55;101983.41;6150242;23;20024;-82
2023/03/29 08:45:34;;;;;;;4.70;3.72;;;;;;;14.63;29.11;102015.94;6148874;23;20448;-81
2023/03/29 08:48:27;;;;;;;8.07;4.40;;;;;;;14.66;29.60;102023.72;6152876;23;20017;-81
2023/03/29 08:51:08;;;;;;;5.50;4.32;;;;;;;14.62;30.00;102006.25;6189515;23;20107;-82
2023/03/29 08:53:49;;;;;;;5.95;3.63;;;;;;;14.57;29.68;101992.41;6169020;23;20520;-80
2023/03/29 08:56:23;;;;;;;7.18;4.63;;;;;;;14.75;30.04;102006.88;6134195;23;20021;-81
2023/03/29 08:59:41;;;;;;;6.28;4.47;;;;;;;14.65;29.51;101955.19;6187121;23;20032;-81
2023/03/29 09:02:24;;;;;;;12.70;5.80;;;;;;;15.04;28.23;101990.19;6135460;23;20035;-82
2023/03/29 09:05:02;;;;;;;10.60;4.80;;;;;;;14.69;29.12;101932.59;6134317;23;20025;-82
2023/03/29 09:07:41;;;;;;;9.63;4.10;;;;;;;13.97;28.13;101785.56;6131782;23;20219;-81
2023/03/29 09:10:17;;;;;;;5.25;3.50;;;;;;;15.13;28.36;101960.00;6135064;23;20088;-82
2023/03/29 09:13:10;;;;;;;6.57;3.50;;;;;;;14.66;28.36;101903.44;6134507;23;20017;-81
2023/03/29 09:16:08;;;;;;;5.00;3.47;;;;;;;15.26;27.57;101977.66;6140607;23;20060;-79
2023/03/29 09:19:03;;;;;;;6.05;3.97;;;;;;;15.34;27.54;101980.50;6147127;23;20477;-81
2023/03/29 09:21:56;;;;;;;9.95;4.60;;;;;;;15.37;27.83;101985.59;6132493;23;20025;-82
2023/03/29 09:24:23;;;;;;;4.55;3.65;;;;;;;15.48;27.98;101987.31;6128597;23;20025;-80
2023/03/29 09:27:40;;;;;;;8.52;3.92;;;;;;;15.55;27.98;101985.78;6127806;23;20021;-79
2023/03/29 09:30:25;;;;;;;11.98;4.15;;;;;;;15.73;28.13;101988.72;6130391;23;20024;-83
2023/03/29 09:33:17;;;;;;;5.25;3.35;;;;;;;15.93;27.78;101993.13;6123294;23;20021;-80
2023/03/29 09:36:03;;;;;;;5.20;3.30;;;;;;;15.89;27.96;101986.34;6034777;23;20283;-82
2023/03/29 09:38:46;;;;;;;8.07;4.13;;;;;;;16.00;28.03;101983.56;6134450;23;20448;-82
2023/03/29 09:41:47;;;;;;;8.95;3.63;;;;;;;16.17;28.05;101989.25;6125377;23;20032;-82
2023/03/29 09:44:24;;;;;;;9.70;4.07;;;;;;;16.42;27.83;101974.44;6118669;23;20027;-83
2023/03/29 09:47:19;;;;;;;8.15;4.07;;;;;;;16.47;27.76;101977.53;6160461;23;20037;-82
2023/03/29 09:49:55;;;;;;;12.20;5.07;;;;;;;16.43;28.18;101973.44;6122564;23;20887;-81
2023/03/29 09:52:26;;;;;;;17.15;4.47;;;;;;;16.21;27.72;101918.28;6127958;23;20095;-81
2023/03/29 09:55:02;;;;;;;5.68;3.95;;;;;;;16.68;27.96;101977.38;6135727;23;20104;-81
2023/03/29 09:57:37;;;;;;;9.98;4.43;;;;;;;16.65;27.85;101942.78;6137559;23;20253;-81
2023/03/29 10:00:06;;;;;;;10.50;5.03;;;;;;;16.99;27.54;101980.75;6124239;23;20361;-80
2023/03/29 10:02:39;;;;;;;11.30;4.45;;;;;;;16.47;27.64;101907.84;6142106;23;20247;-81
2023/03/29 10:05:10;;;;;;;7.28;4.15;;;;;;;16.74;28.27;101959.88;6111369;23;20045;-82
2023/03/29 10:07:47;;;;;;;16.90;4.75;;;;;;;16.30;28.56;101861.19;6159293;23;20060;-83
2023/03/29 10:10:22;;;;;;;12.63;4.60;;;;;;;16.98;28.82;101973.69;6148574;23;20655;-83
2023/03/29 10:13:02;;;;;;;8.40;4.10;;;;;;;15.86;28.69;101793.84;6178723;23;20021;-80
2023/03/29 10:15:57;;;;;;;7.90;4.43;;;;;;;16.78;28.43;101946.06;6122208;23;20023;-82
2023/03/29 10:18:26;;;;;;;11.05;4.35;;;;;;;16.70;28.04;101913.75;6124423;23;20060;-82
2023/03/29 10:21:02;;;;;;;8.90;4.03;;;;;;;17.11;28.40;101957.25;6123321;23;20021;-81
2023/03/29 10:23:37;;;;;;;10.85;4.22;;;;;;;17.46;28.74;101961.09;6121278;23;20221;-82
2023/03/29 10:26:23;;;;;;;7.43;4.22;;;;;;;17.38;28.38;101942.19;6124095;23;20025;-82
2023/03/29 10:28:56;;;;;;;5.88;3.72;;;;;;;17.38;27.60;101931.44;6111271;23;20036;-81
2023/03/29 10:31:23;;;;;;;6.82;3.55;;;;;;;17.65;28.43;101961.00;6103482;23;20350;-81
2023/03/29 10:33:56;;;;;;;10.00;4.10;;;;;;;16.63;28.06;101765.16;6076267;23;20029;-83
2023/03/29 10:36:25;;;;;;;13.40;4.43;;;;;;;17.78;28.23;101968.69;6136948;23;20368;-83
2023/03/29 10:38:56;;;;;;;9.65;4.65;;;;;;;17.58;27.74;101933.03;6109600;23;20017;-82
2023/03/29 10:42:01;;;;;;;10.23;4.00;;;;;;;17.80;28.05;101955.13;6117370;23;20025;-80
2023/03/29 10:44:38;;;;;;;7.93;4.85;;;;;;;17.52;27.94;101901.41;6098673;23;20072;-82
2023/03/29 10:47:19;;;;;;;7.07;4.45;;;;;;;17.57;27.53;101877.63;6103642;23;20476;-81
2023/03/29 10:49:57;;;;;;;6.22;4.15;;;;;;;18.05;27.79;101943.66;6140382;23;20044;-83
2023/03/29 10:52:29;;;;;;;10.43;4.43;;;;;;;18.19;28.37;101941.44;6112332;23;20385;-82
2023/03/29 10:55:13;;;;;;;9.25;5.05;;;;;;;18.35;28.02;101936.22;6148928;23;20116;-82
2023/03/29 10:58:45;;;;;;;12.15;5.07;;;;;;;18.48;28.03;101942.03;6098744;23;20027;-82
2023/03/29 11:01:24;;;;;;;13.27;5.03;;;;;;;18.70;28.64;101943.38;6147464;23;20051;-79
2023/03/29 11:03:57;;;;;;;9.82;4.97;;;;;;;18.74;28.34;101923.22;6146614;23;20264;-81
2023/03/29 11:07:10;;;;;;;8.82;5.20;;;;;;;18.96;27.69;101931.81;6154943;23;20017;-81
2023/03/29 11:09:51;;;;;;;7.38;4.53;;;;;;;19.14;27.44;101945.19;6071809;23;20029;-80
2023/03/29 11:12:52;;;;;;;9.63;4.60;;;;;;;18.47;27.35;101848.94;6100768;23;20351;-82
2023/03/29 11:15:57;;;;;;;9.82;5.07;;;;;;;19.18;27.62;101939.31;6168348;23;20017;-80
2023/03/29 11:18:50;;;;;;;8.23;4.97;;;;;;;19.43;27.28;101942.97;6170415;23;20747;-80
2023/03/29 11:21:47;;;;;;;8.23;5.45;;;;;;;19.11;28.02;101875.53;6129530;23;20437;-82
2023/03/29 11:24:16;;;;;;;9.55;6.15;;;;;;;19.61;28.27;101932.09;6156534;23;20139;-81
2023/03/29 11:27:35;;;;;;;7.75;5.35;;;;;;;19.33;27.90;101845.31;6125211;23;20477;-82
2023/03/29 11:30:43;;;;;;;10.40;6.07;;;;;;;19.49;27.61;101835.59;6086790;23;20105;-80
2023/03/29 11:33:36;;;;;;;13.35;5.93;;;;;;;19.94;28.11;101913.34;6123902;23;20079;-83
2023/03/29 11:36:15;;;;;;;14.23;6.30;;;;;;;20.02;27.99;101925.97;6135705;23;20018;-82
2023/03/29 11:39:06;;;;;;;11.90;6.40;;;;;;;19.98;27.68;101912.00;6137461;23;20040;-82
2023/03/29 11:41:42;;;;;;;9.00;5.75;;;;;;;19.72;27.29;101871.69;6150522;23;20210;-83
2023/03/29 11:44:30;;;;;;;17.02;5.93;;;;;;;19.18;27.45;101814.66;6132444;23;20093;-81
2023/03/29 11:47:38;;;;;;;8.07;5.50;;;;;;;19.32;28.30;101870.56;6157703;23;20060;-79
2023/03/29 11:51:10;;;;;;;15.60;5.75;;;;;;;19.36;28.53;101896.13;6071948;23;20018;-81
2023/03/29 11:54:02;;;;;;;16.30;6.85;;;;;;;19.58;28.27;101888.47;5966903;23;20587;-82
2023/03/29 11:56:45;;;;;;;9.73;6.10;;;;;;;19.68;28.23;101847.94;6063324;23;20075;-82
2023/03/29 11:59:27;;;;;;;9.07;5.97;;;;;;;19.89;27.76;101856.41;6149294;23;20020;-81
2023/03/29 12:02:34;;;;;;;10.52;6.45;;;;;;;20.31;28.07;101886.91;6146005;23;20336;-82
2023/03/29 12:05:22;;;;;;;10.15;5.88;;;;;;;20.03;27.92;101814.47;6156867;23;20017;-79
2023/03/29 12:08:15;;;;;;;12.30;6.43;;;;;;;20.78;28.11;101872.69;6112850;23;20380;-81
2023/03/29 12:10:48;;;;;;;15.90;6.90;;;;;;;20.28;27.79;101758.66;6117583;23;20220;-84
2023/03/29 12:13:46;;;;;;;13.65;7.15;;;;;;;19.57;27.53;101639.00;6112892;23;20037;-82
2023/03/29 12:16:20;;;;;;;12.98;6.30;;;;;;;20.93;27.56;101838.56;6125467;23;20358;-81
2023/03/29 12:18:56;;;;;;;12.02;6.10;;;;;;;20.83;27.54;101867.63;6109334;23;20021;-80
2023/03/29 12:21:28;;;;;;;9.77;6.03;;;;;;;20.76;27.48;101880.13;6143611;23;20025;-81
2023/03/29 12:23:56;;;;;;;11.80;6.40;;;;;;;20.56;27.74;101858.94;6115456;23;20465;-80
2023/03/29 12:26:39;;;;;;;10.55;7.18;;;;;;;20.58;28.06;101883.84;6116327;23;20032;-81